Time;durP1;ratioP1;P1;durP2;ratioP2;P2;SDS_P1;SDS_P2;PMS_P1;PMS_P2;Temp;Humidity;BMP_temperature;BMP_pressure;BME280_temperature;BME280_humidity;BME280_pressure;Samples;Min_cycle;Max_cycle;Signal;HPM_P1;HPM_P2
2022/11/23 00:00:56;;;;;;;19.10;13.48;;;;;;;9.41;61.65;93706.19;5010353;28;20034;-67
2022/11/23 00:03:22;;;;;;;20.08;13.30;;;;;;;9.38;62.13;93696.13;5009375;28;20030;-68
2022/11/23 00:05:47;;;;;;;17.42;12.00;;;;;;;9.42;61.63;93707.69;4992572;28;20025;-68
2022/11/23 00:08:13;;;;;;;18.02;12.45;;;;;;;9.40;61.29;93707.38;5009743;28;20467;-68
2022/11/23 00:10:38;;;;;;;16.38;11.93;;;;;;;9.41;61.21;93719.91;5009709;28;20516;-67
2022/11/23 00:13:03;;;;;;;16.83;11.85;;;;;;;9.28;61.51;93712.56;5010195;28;20483;-68
2022/11/23 00:15:29;;;;;;;19.10;11.27;;;;;;;9.28;61.80;93718.06;5010835;28;20399;-68
2022/11/23 00:17:54;;;;;;;18.13;11.95;;;;;;;9.26;61.87;93697.81;5010507;28;20399;-69
2022/11/23 00:20:20;;;;;;;18.27;12.15;;;;;;;9.26;61.91;93706.03;5009085;28;20089;-70
2022/11/23 00:22:45;;;;;;;17.52;11.43;;;;;;;9.24;62.05;93673.59;5012320;28;20416;-68
2022/11/23 00:25:11;;;;;;;17.70;11.63;;;;;;;9.22;62.21;93691.69;5028920;28;20439;-68
2022/11/23 00:27:36;;;;;;;17.85;10.65;;;;;;;9.23;62.42;93687.75;5011423;28;20487;-68
2022/11/23 00:30:02;;;;;;;17.83;11.75;;;;;;;9.22;62.34;93683.47;5029435;28;20018;-68
2022/11/23 00:32:33;;;;;;;19.05;10.88;;;;;;;9.19;62.88;93687.16;5018728;28;20480;-68
2022/11/23 00:34:59;;;;;;;17.58;11.65;;;;;;;9.18;62.78;93686.41;5010119;28;20037;-68
2022/11/23 00:37:24;;;;;;;16.80;11.43;;;;;;;9.23;63.06;93699.50;5013700;28;20029;-68
2022/11/23 00:39:49;;;;;;;17.92;11.88;;;;;;;9.30;63.08;93701.91;5028709;28;20415;-67
2022/11/23 00:42:15;;;;;;;19.25;11.05;;;;;;;9.29;63.18;93697.66;5028107;28;20025;-68
2022/11/23 00:44:40;;;;;;;17.42;11.90;;;;;;;9.34;62.62;93687.28;5027996;28;20029;-68
2022/11/23 00:47:06;;;;;;;14.70;10.13;;;;;;;9.28;62.45;93690.63;5027874;28;20033;-68
2022/11/23 00:49:31;;;;;;;14.75;10.27;;;;;;;9.23;62.86;93688.53;5027360;28;20079;-68
2022/11/23 00:51:57;;;;;;;16.92;10.65;;;;;;;9.09;63.31;93683.63;5028664;28;20033;-68
2022/11/23 00:54:22;;;;;;;15.07;10.07;;;;;;;9.04;63.74;93689.72;5027259;28;20408;-67
2022/11/23 00:56:47;;;;;;;14.10;10.05;;;;;;;9.06;63.43;93679.09;5028469;28;20033;-69
2022/11/23 00:59:13;;;;;;;13.13;9.43;;;;;;;9.08;63.48;93675.88;5027892;28;20385;-69
2022/11/23 01:01:38;;;;;;;15.20;10.75;;;;;;;9.15;63.55;93698.25;5028290;28;20459;-69
2022/11/23 01:04:05;;;;;;;12.65;8.50;;;;;;;9.08;63.85;93693.09;5026974;28;20495;-69
2022/11/23 01:06:33;;;;;;;13.30;7.45;;;;;;;9.15;64.02;93692.78;5000448;28;20026;-68
2022/11/23 01:09:00;;;;;;;10.10;7.18;;;;;;;9.16;64.19;93686.06;5015831;28;20022;-67
2022/11/23 01:11:27;;;;;;;10.25;6.50;;;;;;;9.09;64.33;93672.69;5027791;28;20502;-68
2022/11/23 01:13:52;;;;;;;9.55;7.18;;;;;;;9.04;64.75;93679.53;5029328;28;20025;-68
2022/11/23 01:16:20;;;;;;;9.45;6.93;;;;;;;9.07;64.86;93680.59;5028003;28;20052;-68
2022/11/23 01:18:46;;;;;;;11.75;8.13;;;;;;;9.02;65.09;93703.13;5011043;28;20032;-69
2022/11/23 01:21:11;;;;;;;13.80;8.68;;;;;;;9.04;65.77;93706.19;5029794;28;20029;-68
2022/11/23 01:23:37;;;;;;;8.85;7.22;;;;;;;9.08;65.77;93700.56;5017445;28;20029;-69
2022/11/23 01:26:08;;;;;;;9.90;7.30;;;;;;;9.02;66.09;93676.50;5008507;28;20507;-68
2022/11/23 01:28:34;;;;;;;11.00;7.63;;;;;;;9.03;65.98;93680.00;5008370;28;20033;-67
2022/11/23 01:31:03;;;;;;;10.95;8.07;;;;;;;8.99;66.05;93679.38;5008847;28;20030;-67
2022/11/23 01:33:29;;;;;;;10.02;7.45;;;;;;;9.02;66.15;93686.69;5006048;28;20539;-67
2022/11/23 01:35:54;;;;;;;11.77;8.10;;;;;;;8.99;65.92;93679.38;5008691;28;20040;-69
2022/11/23 01:38:20;;;;;;;11.43;7.68;;;;;;;9.00;66.05;93667.19;5007993;28;20030;-69
2022/11/23 01:40:45;;;;;;;11.32;8.20;;;;;;;9.04;66.18;93681.50;5008535;28;20021;-68
2022/11/23 01:43:14;;;;;;;10.98;7.63;;;;;;;9.01;66.45;93660.50;5007791;28;20018;-68
2022/11/23 01:45:41;;;;;;;11.70;8.05;;;;;;;8.96;66.29;93686.53;5007893;28;20034;-68
2022/11/23 01:48:15;;;;;;;10.63;7.97;;;;;;;9.05;66.02;93691.25;5008170;28;20122;-68
2022/11/23 01:50:41;;;;;;;10.65;7.63;;;;;;;9.02;66.13;93679.22;4991324;28;20037;-68
2022/11/23 01:53:06;;;;;;;11.75;8.45;;;;;;;9.03;66.52;93678.00;5009618;28;20057;-68
2022/11/23 01:55:32;;;;;;;12.45;7.75;;;;;;;9.07;66.29;93671.63;5025884;28;20026;-69
2022/11/23 01:57:57;;;;;;;11.70;7.88;;;;;;;9.08;66.40;93679.38;5022342;28;20089;-69
2022/11/23 02:00:23;;;;;;;14.48;7.78;;;;;;;9.02;66.39;93679.22;5009814;28;20399;-69
2022/11/23 02:02:58;;;;;;;10.48;8.23;;;;;;;9.00;66.54;93667.97;5027193;28;20883;-69
2022/11/23 02:05:27;;;;;;;14.10;9.27;;;;;;;9.02;66.76;93651.06;5014085;28;20030;-68
2022/11/23 02:07:52;;;;;;;12.05;8.90;;;;;;;9.00;67.03;93653.47;5040538;28;20026;-68
2022/11/23 02:10:18;;;;;;;13.07;8.45;;;;;;;9.07;67.17;93661.41;4993102;28;20041;-68
2022/11/23 02:12:44;;;;;;;13.35;9.02;;;;;;;9.06;67.02;93648.94;5007098;28;20037;-68
2022/11/23 02:15:09;;;;;;;13.98;8.35;;;;;;;8.98;66.99;93650.44;5026989;28;20037;-68
2022/11/23 02:17:35;;;;;;;11.50;8.05;;;;;;;8.85;66.94;93641.63;5007568;28;20499;-68
2022/11/23 02:20:09;;;;;;;10.10;7.78;;;;;;;9.04;66.07;93649.38;5025487;28;20107;-69
2022/11/23 02:22:55;;;;;;;10.35;6.97;;;;;;;8.82;66.59;93648.75;5002274;28;20033;-68
2022/11/23 02:25:26;;;;;;;13.45;7.50;;;;;;;8.81;66.89;93657.44;5036402;28;20754;-68
2022/11/23 02:27:52;;;;;;;12.85;8.05;;;;;;;8.81;66.29;93647.25;5026590;28;20451;-68
2022/11/23 02:30:18;;;;;;;10.52;7.70;;;;;;;8.66;66.46;93641.63;4996957;28;20036;-68
2022/11/23 02:32:43;;;;;;;10.50;7.82;;;;;;;8.72;66.78;93653.50;5007195;28;20041;-69
2022/11/23 02:35:10;;;;;;;12.43;8.18;;;;;;;8.77;66.68;93641.94;5027233;28;20037;-68
2022/11/23 02:37:36;;;;;;;10.55;8.43;;;;;;;8.72;66.69;93656.22;5002408;28;20109;-69
2022/11/23 02:40:01;;;;;;;11.43;8.60;;;;;;;8.78;66.75;93646.19;5031368;28;20120;-67
2022/11/23 02:42:27;;;;;;;11.00;8.57;;;;;;;8.78;66.86;93634.47;5003327;28;20026;-69
2022/11/23 02:44:59;;;;;;;13.00;8.63;;;;;;;8.75;67.00;93603.25;4981102;28;20021;-69
2022/11/23 02:47:24;;;;;;;10.93;8.45;;;;;;;8.75;66.98;93611.47;4998440;28;20054;-68
2022/11/23 02:49:50;;;;;;;10.13;8.05;;;;;;;8.75;66.94;93625.16;5025964;28;20018;-68
2022/11/23 02:52:16;;;;;;;12.40;8.27;;;;;;;8.77;67.19;93611.78;5024680;28;20037;-67
2022/11/23 02:54:41;;;;;;;12.60;8.43;;;;;;;8.77;67.05;93614.53;5026619;28;20033;-68
2022/11/23 02:57:07;;;;;;;9.75;7.57;;;;;;;8.70;67.21;93589.41;5025741;28;20136;-68
2022/11/23 02:59:32;;;;;;;11.93;8.57;;;;;;;8.72;67.37;93586.97;5014075;28;20400;-71
2022/11/23 03:01:59;;;;;;;12.68;8.85;;;;;;;8.72;67.17;93595.97;5026227;28;20026;-68
2022/11/23 03:04:24;;;;;;;13.95;8.90;;;;;;;8.74;66.87;93588.03;5024713;28;20022;-66
2022/11/23 03:06:49;;;;;;;11.68;8.90;;;;;;;8.75;66.90;93616.94;5025655;28;20014;-67
2022/11/23 03:09:15;;;;;;;11.88;8.60;;;;;;;8.67;67.16;93604.78;5026415;28;20025;-67
2022/11/23 03:11:40;;;;;;;12.43;9.30;;;;;;;8.66;67.39;93564.91;5025000;28;20033;-67
2022/11/23 03:14:06;;;;;;;11.23;8.85;;;;;;;8.54;67.68;93587.72;5024986;28;20041;-67
2022/11/23 03:16:32;;;;;;;12.45;9.13;;;;;;;8.49;67.59;93580.88;5025470;28;20037;-69
2022/11/23 03:18:58;;;;;;;12.80;8.82;;;;;;;8.51;67.74;93558.50;5025780;28;20491;-68
2022/11/23 03:21:23;;;;;;;11.30;8.38;;;;;;;8.45;68.09;93585.75;5023783;28;20026;-68
2022/11/23 03:23:48;;;;;;;12.07;9.02;;;;;;;8.44;67.98;93578.00;5026158;28;20022;-67
2022/11/23 03:26:14;;;;;;;10.93;7.82;;;;;;;8.36;68.19;93569.31;5024745;28;20052;-67
2022/11/23 03:28:39;;;;;;;12.18;8.77;;;;;;;8.31;68.77;93596.50;5026138;28;20037;-67
2022/11/23 03:31:05;;;;;;;12.95;9.57;;;;;;;8.25;69.15;93571.69;5026448;28;20018;-68
2022/11/23 03:33:30;;;;;;;14.25;10.35;;;;;;;8.32;69.24;93607.00;5027493;28;20433;-68
2022/11/23 03:35:55;;;;;;;13.43;10.25;;;;;;;7.87;70.48;93559.16;5025742;28;20034;-68
2022/11/23 03:38:21;;;;;;;15.25;10.65;;;;;;;7.81;70.89;93541.84;5023929;28;20033;-68
2022/11/23 03:40:46;;;;;;;12.90;10.25;;;;;;;7.78;70.67;93556.41;5020514;28;20022;-66
2022/11/23 03:43:12;;;;;;;13.70;10.60;;;;;;;7.76;70.67;93560.81;5023995;28;20392;-67
2022/11/23 03:45:38;;;;;;;15.40;10.63;;;;;;;7.73;70.87;93546.03;5024975;28;20029;-68
2022/11/23 03:48:04;;;;;;;14.52;10.07;;;;;;;7.68;71.35;93550.16;5024447;28;20089;-67
2022/11/23 03:50:29;;;;;;;14.18;10.00;;;;;;;7.86;71.06;93554.16;5026240;28;20117;-68
2022/11/23 03:52:55;;;;;;;12.07;9.23;;;;;;;7.98;70.21;93570.44;5024831;28;20440;-67
2022/11/23 03:55:20;;;;;;;14.00;9.10;;;;;;;7.90;69.88;93524.66;5008011;28;20423;-67
2022/11/23 03:57:49;;;;;;;14.85;9.35;;;;;;;8.06;69.94;93551.00;5022460;28;20021;-67
2022/11/23 04:00:15;;;;;;;14.23;8.68;;;;;;;8.06;69.62;93551.00;5017187;28;20065;-66
2022/11/23 04:02:41;;;;;;;13.98;9.77;;;;;;;8.02;70.32;93542.91;5025968;28;20547;-68
2022/11/23 04:05:07;;;;;;;14.65;10.02;;;;;;;8.07;70.22;93558.75;5022927;28;20029;-68
2022/11/23 04:07:32;;;;;;;12.82;9.25;;;;;;;8.09;69.92;93569.25;5026997;28;20072;-68
2022/11/23 04:09:57;;;;;;;13.07;9.13;;;;;;;8.15;69.57;93564.69;5023663;28;20033;-67
2022/11/23 04:12:24;;;;;;;13.15;9.20;;;;;;;8.18;69.54;93572.00;5024444;28;20042;-68
2022/11/23 04:14:50;;;;;;;13.40;9.10;;;;;;;8.27;69.63;93587.69;5024940;28;20090;-67
2022/11/23 04:17:15;;;;;;;10.38;7.97;;;;;;;8.31;69.37;93578.09;5006482;28;20025;-68
2022/11/23 04:19:41;;;;;;;15.45;9.73;;;;;;;8.27;69.24;93572.00;5025470;28;20021;-67
2022/11/23 04:22:06;;;;;;;14.50;9.20;;;;;;;8.39;69.18;93584.06;5024234;28;20040;-68
2022/11/23 04:24:31;;;;;;;11.98;8.13;;;;;;;8.39;69.28;93575.84;5024663;28;20033;-68
2022/11/23 04:26:57;;;;;;;11.50;9.18;;;;;;;8.44;69.06;93581.50;5024263;28;20032;-68
2022/11/23 04:29:22;;;;;;;15.48;10.38;;;;;;;8.41;69.02;93579.66;5025700;28;20088;-68
2022/11/23 04:31:48;;;;;;;16.27;11.27;;;;;;;8.47;69.03;93590.75;5024548;28;20624;-67
2022/11/23 04:34:13;;;;;;;16.85;10.77;;;;;;;8.46;68.93;93589.25;5027995;28;20419;-67
2022/11/23 04:36:38;;;;;;;13.40;10.02;;;;;;;8.47;69.01;93594.25;5030290;28;20033;-67
2022/11/23 04:39:05;;;;;;;15.75;10.98;;;;;;;8.51;68.77;93597.63;5028702;28;20018;-67
2022/11/23 04:41:30;;;;;;;13.90;10.02;;;;;;;8.45;68.61;93590.47;5028626;28;20025;-68
2022/11/23 04:43:55;;;;;;;12.65;9.85;;;;;;;8.40;69.11;93578.13;5026858;28;20091;-67
2022/11/23 04:46:21;;;;;;;15.77;11.07;;;;;;;8.29;69.13;93582.50;5028207;28;20030;-67
2022/11/23 04:48:46;;;;;;;13.93;9.88;;;;;;;8.31;69.21;93593.75;5027712;28;20049;-67
2022/11/23 04:51:12;;;;;;;15.30;11.02;;;;;;;8.33;69.16;93611.25;5027897;28;20034;-68
2022/11/23 04:53:37;;;;;;;12.85;10.40;;;;;;;8.25;69.17;93602.56;4992237;28;20072;-69
2022/11/23 04:56:03;;;;;;;14.18;10.25;;;;;;;8.32;68.80;93604.28;5016431;28;20080;-67
2022/11/23 04:58:28;;;;;;;14.35;9.93;;;;;;;8.30;69.00;93617.63;5023395;28;20061;-66
2022/11/23 05:00:54;;;;;;;14.55;9.18;;;;;;;8.35;68.81;93613.53;5028456;28;20071;-67
2022/11/23 05:03:19;;;;;;;12.13;9.75;;;;;;;8.33;68.72;93605.78;5027521;28;20025;-68
2022/11/23 05:05:45;;;;;;;13.18;9.52;;;;;;;8.25;68.85;93615.50;5028402;28;20511;-68
2022/11/23 05:08:10;;;;;;;15.63;11.38;;;;;;;8.30;68.90;93608.66;5027624;28;20565;-68
2022/11/23 05:10:36;;;;;;;15.95;11.18;;;;;;;8.18;69.04;93608.34;5028256;28;20572;-67
2022/11/23 05:13:02;;;;;;;15.73;11.40;;;;;;;8.21;69.14;93614.91;5035207;28;20037;-70
2022/11/23 05:15:27;;;;;;;13.07;9.88;;;;;;;8.15;69.37;93605.75;5031460;28;20052;-69
2022/11/23 05:17:53;;;;;;;14.90;10.52;;;;;;;8.17;69.03;93592.38;5027317;28;20084;-68
2022/11/23 05:20:18;;;;;;;15.93;11.52;;;;;;;8.11;69.77;93597.69;5028052;28;20032;-67
2022/11/23 05:22:43;;;;;;;16.83;10.98;;;;;;;8.04;69.77;93594.47;5026830;28;20028;-67
2022/11/23 05:25:09;;;;;;;17.92;10.35;;;;;;;7.95;69.86;93597.94;5026228;28;20029;-67
2022/11/23 05:27:34;;;;;;;14.65;9.80;;;;;;;7.96;70.02;93610.41;5021011;28;20473;-68
2022/11/23 05:30:00;;;;;;;13.45;9.23;;;;;;;8.00;70.04;93605.56;5027076;28;20025;-67
2022/11/23 05:32:25;;;;;;;12.40;8.60;;;;;;;8.00;70.13;93597.34;5025040;28;20037;-67
2022/11/23 05:34:51;;;;;;;13.55;9.38;;;;;;;7.96;70.10;93581.06;5027238;28;20087;-67
2022/11/23 05:37:16;;;;;;;14.18;9.55;;;;;;;8.09;69.87;93582.94;5026745;28;20040;-67
2022/11/23 05:39:42;;;;;;;13.40;8.90;;;;;;;8.07;69.73;93575.16;5024641;28;20053;-66
2022/11/23 05:42:08;;;;;;;16.00;11.02;;;;;;;8.12;69.78;93576.53;5029391;28;20014;-67
2022/11/23 05:44:33;;;;;;;11.57;8.70;;;;;;;8.14;69.67;93580.38;5026762;28;20404;-68
2022/11/23 05:46:59;;;;;;;13.88;9.50;;;;;;;8.19;69.63;93581.72;5028143;28;20075;-67
2022/11/23 05:49:24;;;;;;;15.73;10.27;;;;;;;8.22;69.69;93581.59;5009202;28;20048;-67
2022/11/23 05:51:50;;;;;;;12.85;8.77;;;;;;;8.19;69.45;93581.72;5027975;28;20083;-67
2022/11/23 05:54:15;;;;;;;14.10;8.85;;;;;;;8.20;69.73;93577.75;5009170;28;20025;-67
2022/11/23 05:56:40;;;;;;;13.13;8.13;;;;;;;8.23;69.69;93596.78;5007810;28;20029;-68
2022/11/23 05:59:06;;;;;;;16.00;11.68;;;;;;;8.11;70.16;93592.22;5008501;28;20499;-67
2022/11/23 06:01:32;;;;;;;17.77;13.15;;;;;;;8.09;70.33;93588.41;5024050;28;20435;-67
2022/11/23 06:03:57;;;;;;;15.75;13.18;;;;;;;8.16;70.04;93580.66;5034335;28;20026;-67
2022/11/23 06:06:23;;;;;;;19.70;12.10;;;;;;;8.22;69.83;93587.06;5007586;28;20053;-67
2022/11/23 06:08:48;;;;;;;16.75;13.52;;;;;;;8.29;69.76;93602.44;5023574;28;20423;-68
2022/11/23 06:11:14;;;;;;;18.08;12.88;;;;;;;8.30;69.41;93589.50;5026829;28;20397;-66
2022/11/23 06:13:40;;;;;;;17.27;12.82;;;;;;;8.33;69.57;93591.34;5022047;28;20591;-69
2022/11/23 06:16:05;;;;;;;17.77;13.05;;;;;;;8.39;69.50;93604.00;5030760;28;20029;-68
2022/11/23 06:18:33;;;;;;;17.30;13.55;;;;;;;8.46;68.91;93600.19;5029879;28;20025;-69
2022/11/23 06:20:59;;;;;;;17.75;13.93;;;;;;;8.35;69.05;93619.78;5028089;28;20022;-68
2022/11/23 06:23:25;;;;;;;20.05;14.63;;;;;;;8.42;69.01;93619.50;5008918;28;20059;-67
2022/11/23 06:25:51;;;;;;;19.02;14.32;;;;;;;8.31;69.44;93621.13;5027279;28;20029;-68
2022/11/23 06:28:16;;;;;;;22.60;14.93;;;;;;;8.29;69.48;93624.34;5026149;28;20025;-68
2022/11/23 06:30:41;;;;;;;21.10;15.27;;;;;;;8.24;69.56;93628.44;5016075;28;20029;-68
2022/11/23 06:33:07;;;;;;;20.48;15.18;;;;;;;8.15;69.75;93635.88;5025756;28;20437;-68
2022/11/23 06:35:32;;;;;;;17.67;12.23;;;;;;;8.04;70.07;93639.03;5025143;28;20044;-73
2022/11/23 06:37:58;;;;;;;17.73;12.75;;;;;;;7.99;70.21;93634.91;5026528;28;20033;-74
2022/11/23 06:40:23;;;;;;;17.63;12.70;;;;;;;7.88;70.80;93642.78;5025073;28;20099;-74
2022/11/23 06:42:49;;;;;;;23.15;14.13;;;;;;;7.89;70.92;93629.84;5026852;28;20442;-73
2022/11/23 06:45:14;;;;;;;20.90;14.02;;;;;;;7.88;70.97;93615.41;5025566;28;20523;-74
2022/11/23 06:47:40;;;;;;;19.48;14.25;;;;;;;7.99;70.91;93618.50;5010182;28;20044;-75
2022/11/23 06:50:05;;;;;;;22.30;14.40;;;;;;;8.14;70.27;93607.75;5021762;28;20038;-74
2022/11/23 06:52:31;;;;;;;17.40;13.68;;;;;;;8.29;70.34;93609.88;5026355;28;20052;-73
2022/11/23 06:54:56;;;;;;;17.20;12.77;;;;;;;8.32;69.65;93612.50;5009136;28;20131;-73
2022/11/23 06:57:22;;;;;;;18.58;12.32;;;;;;;8.51;69.67;93618.78;5025901;28;20468;-74
2022/11/23 06:59:47;;;;;;;18.15;12.07;;;;;;;8.61;69.42;93619.53;5026828;28;20025;-73
2022/11/23 07:02:13;;;;;;;18.77;12.43;;;;;;;8.75;69.12;93622.44;5025278;28;20034;-66
2022/11/23 07:04:39;;;;;;;18.95;13.48;;;;;;;8.95;68.78;93621.22;5007023;28;20032;-69
2022/11/23 07:07:06;;;;;;;15.43;12.32;;;;;;;9.20;68.24;93625.59;5018874;28;20053;-68
2022/11/23 07:09:31;;;;;;;16.05;12.40;;;;;;;9.30;68.09;93624.38;5008627;28;20036;-69
2022/11/23 07:11:56;;;;;;;18.27;12.57;;;;;;;9.43;67.80;93624.19;5024265;28;20025;-69
2022/11/23 07:14:22;;;;;;;18.60;12.13;;;;;;;9.60;67.45;93624.59;5024198;28;20151;-67
2022/11/23 07:16:47;;;;;;;16.40;12.15;;;;;;;9.67;67.07;93633.25;5025901;28;20033;-67
2022/11/23 07:19:13;;;;;;;15.88;11.18;;;;;;;9.86;66.56;93639.44;5026201;28;20584;-69
2022/11/23 07:21:38;;;;;;;19.25;12.00;;;;;;;10.10;65.87;93632.03;5025959;28;20500;-69
2022/11/23 07:24:04;;;;;;;15.18;11.30;;;;;;;10.20;65.78;93629.22;5025279;28;20420;-69
2022/11/23 07:26:29;;;;;;;15.30;11.35;;;;;;;10.33;65.42;93629.81;5026168;28;20026;-68
2022/11/23 07:28:55;;;;;;;15.52;11.20;;;;;;;10.49;64.88;93634.13;5024532;28;20056;-69
2022/11/23 07:31:20;;;;;;;17.77;11.57;;;;;;;10.53;64.80;93623.72;5024411;28;20037;-68
2022/11/23 07:33:46;;;;;;;16.35;10.60;;;;;;;10.62;64.52;93626.41;5024253;28;20083;-69
2022/11/23 07:36:11;;;;;;;18.25;12.50;;;;;;;10.68;64.33;93640.28;5025187;28;20033;-69
2022/11/23 07:38:37;;;;;;;21.27;13.70;;;;;;;10.79;63.85;93630.25;5015021;28;20048;-69
2022/11/23 07:41:02;;;;;;;17.58;12.82;;;;;;;10.96;63.38;93621.59;5024427;28;20071;-68
2022/11/23 07:43:28;;;;;;;16.42;12.35;;;;;;;11.02;63.24;93631.47;5025011;28;20040;-68
2022/11/23 07:45:56;;;;;;;18.98;12.35;;;;;;;11.10;62.93;93618.84;5025586;28;20025;-70
2022/11/23 07:48:22;;;;;;;17.05;11.60;;;;;;;11.24;62.42;93609.13;5021144;28;20088;-68
2022/11/23 07:50:50;;;;;;;13.40;10.38;;;;;;;11.60;61.85;93613.47;5005589;28;20030;-68
2022/11/23 07:53:15;;;;;;;14.43;10.57;;;;;;;11.82;61.45;93626.88;5033221;28;20034;-68
2022/11/23 07:55:41;;;;;;;15.52;10.13;;;;;;;12.17;60.65;93631.69;5026582;28;20029;-68
2022/11/23 07:58:06;;;;;;;14.43;10.05;;;;;;;12.59;60.17;93633.25;5025385;28;20037;-69
2022/11/23 08:00:32;;;;;;;18.52;10.52;;;;;;;12.72;59.10;93637.19;5025950;28;20389;-68
2022/11/23 08:02:57;;;;;;;12.15;9.88;;;;;;;13.25;57.78;93627.81;5024374;28;20029;-68
2022/11/23 08:05:23;;;;;;;11.70;8.85;;;;;;;13.61;56.96;93630.41;5024666;28;20021;-69
2022/11/23 08:07:48;;;;;;;13.13;9.07;;;;;;;14.05;56.09;93635.56;5022435;28;20464;-69
2022/11/23 08:10:14;;;;;;;13.40;9.13;;;;;;;14.52;55.00;93623.09;5028240;28;20025;-69
2022/11/23 08:12:39;;;;;;;12.45;9.32;;;;;;;15.01;53.51;93634.91;5028126;28;20079;-68
2022/11/23 08:15:05;;;;;;;11.77;9.07;;;;;;;15.52;52.16;93624.72;5029380;28;20379;-68
2022/11/23 08:17:31;;;;;;;11.95;10.18;;;;;;;15.95;50.92;93618.28;5026746;28;20025;-69
2022/11/23 08:19:57;;;;;;;14.00;9.15;;;;;;;16.46;49.73;93617.00;5026203;28;21367;-69
2022/11/23 08:22:22;;;;;;;13.82;10.38;;;;;;;16.88;48.34;93615.13;5029085;28;20036;-68
2022/11/23 08:24:48;;;;;;;13.27;11.25;;;;;;;17.33;47.44;93617.72;5028077;28;20033;-68
2022/11/23 08:27:13;;;;;;;13.93;11.63;;;;;;;17.72;46.32;93607.19;5028476;28;20037;-68
2022/11/23 08:29:39;;;;;;;13.43;11.48;;;;;;;18.02;45.70;93607.22;5026029;28;20090;-68
2022/11/23 08:32:04;;;;;;;15.25;12.27;;;;;;;18.37;44.15;93602.88;5029173;28;20036;-67
2022/11/23 08:34:29;;;;;;;12.07;10.88;;;;;;;19.04;43.04;93609.81;5028226;28;20022;-68
2022/11/23 08:36:55;;;;;;;13.82;12.10;;;;;;;19.72;42.13;93610.44;5010507;28;20068;-68
2022/11/23 08:39:21;;;;;;;13.20;11.65;;;;;;;20.32;40.14;93614.88;5029620;28;20025;-68
2022/11/23 08:41:46;;;;;;;16.77;13.30;;;;;;;20.86;39.28;93617.25;5028508;28;20034;-68
2022/11/23 08:44:12;;;;;;;18.08;13.52;;;;;;;21.42;39.20;93612.63;5028979;28;20404;-68
2022/11/23 08:46:37;;;;;;;16.50;14.73;;;;;;;22.07;36.85;93610.19;5009135;28;20488;-68
2022/11/23 08:49:03;;;;;;;15.95;14.25;;;;;;;22.74;35.67;93620.53;5024082;28;20045;-68
2022/11/23 08:51:29;;;;;;;16.23;14.30;;;;;;;23.55;34.71;93618.63;5028517;28;20036;-68
2022/11/23 08:53:54;;;;;;;15.52;13.93;;;;;;;24.31;32.26;93616.06;5028571;28;20049;-69
2022/11/23 08:56:20;;;;;;;14.95;13.48;;;;;;;24.94;30.79;93620.44;5028815;28;20021;-68
2022/11/23 08:58:45;;;;;;;16.75;14.05;;;;;;;25.79;30.08;93616.16;5028656;28;20033;-68
2022/11/23 09:01:12;;;;;;;15.48;13.00;;;;;;;26.63;28.21;93619.28;5029178;28;20040;-68
2022/11/23 09:03:37;;;;;;;15.32;13.73;;;;;;;27.47;27.65;93623.44;5027331;28;20022;-69
2022/11/23 09:06:03;;;;;;;16.13;13.43;;;;;;;28.44;26.29;93610.06;5026958;28;20029;-68
2022/11/23 09:08:28;;;;;;;14.93;12.80;;;;;;;29.56;25.05;93610.88;5027027;28;20032;-69
2022/11/23 09:10:54;;;;;;;15.00;12.30;;;;;;;30.56;23.87;93601.06;5028504;28;20013;-68
2022/11/23 09:13:19;;;;;;;14.07;11.43;;;;;;;31.52;22.75;93604.09;4998895;28;20030;-69
2022/11/23 09:15:45;;;;;;;12.98;10.90;;;;;;;31.53;22.33;93605.56;5020966;28;20036;-69
2022/11/23 09:18:10;;;;;;;12.25;9.98;;;;;;;31.99;21.96;93605.09;5028004;28;20512;-67
2022/11/23 09:20:38;;;;;;;11.65;8.25;;;;;;;32.79;20.58;93608.03;5026966;28;20037;-67
2022/11/23 09:23:04;;;;;;;7.85;6.40;;;;;;;32.93;21.31;93597.56;5027812;28;20545;-69
2022/11/23 09:25:29;;;;;;;7.15;6.45;;;;;;;33.34;19.99;93591.47;5022963;28;20026;-67
2022/11/23 09:28:00;;;;;;;7.75;6.20;;;;;;;34.15;19.35;93609.00;5028229;28;20033;-69
2022/11/23 09:30:25;;;;;;;6.68;5.88;;;;;;;35.28;18.89;93599.50;5027419;28;20029;-68
2022/11/23 09:32:51;;;;;;;7.68;6.22;;;;;;;36.08;17.58;93595.72;5027325;28;20035;-67
2022/11/23 09:35:16;;;;;;;8.48;5.95;;;;;;;36.53;17.26;93600.75;5026877;28;20088;-68
2022/11/23 09:37:42;;;;;;;7.20;5.72;;;;;;;37.20;16.05;93592.41;5007996;28;20041;-69
2022/11/23 09:40:10;;;;;;;6.05;5.53;;;;;;;37.65;15.77;93600.13;5010121;28;20507;-70
2022/11/23 09:42:53;;;;;;;8.25;5.75;;;;;;;38.16;15.35;93594.44;4992925;28;20539;-70
2022/11/23 09:46:00;;;;;;;6.50;5.53;;;;;;;38.36;15.48;93585.94;5008463;28;20033;-69
2022/11/23 09:48:42;;;;;;;6.63;5.47;;;;;;;39.42;14.30;93600.78;4987803;28;20042;-68
2022/11/23 09:51:14;;;;;;;5.10;4.60;;;;;;;39.48;14.19;93598.13;5023108;28;20463;-68
2022/11/23 09:54:01;;;;;;;6.93;5.60;;;;;;;38.35;14.99;93600.94;5005442;28;20030;-80
2022/11/23 09:56:33;;;;;;;6.85;6.07;;;;;;;38.48;14.45;93605.75;4976294;28;20038;-80
2022/11/23 09:59:01;;;;;;;6.30;5.20;;;;;;;37.87;15.24;93600.38;4993288;28;20400;-80
2022/11/23 10:01:26;;;;;;;7.43;6.72;;;;;;;36.93;16.22;93610.53;5006916;28;20037;-81
2022/11/23 10:03:52;;;;;;;5.22;4.55;;;;;;;36.63;15.84;93599.09;5000132;28;20029;-81
2022/11/23 10:06:24;;;;;;;5.32;4.40;;;;;;;35.44;17.29;93591.78;4978750;28;20125;-82
2022/11/23 10:09:11;;;;;;;6.68;5.70;;;;;;;35.62;17.06;93589.88;5003788;28;20071;-82
2022/11/23 10:12:07;;;;;;;8.40;4.60;;;;;;;35.65;17.32;93594.28;5023737;28;20116;-81
2022/11/23 10:14:52;;;;;;;6.05;4.57;;;;;;;35.19;17.04;93591.88;5014855;28;20083;-83
2022/11/23 10:17:28;;;;;;;5.03;4.45;;;;;;;34.49;17.84;93578.84;5008523;28;20104;-82
2022/11/23 10:19:53;;;;;;;6.72;4.53;;;;;;;34.16;18.22;93582.69;5033816;28;20087;-82
2022/11/23 10:22:22;;;;;;;5.03;4.53;;;;;;;33.11;18.83;93577.25;5034377;28;20032;-83
2022/11/23 10:24:50;;;;;;;7.25;4.88;;;;;;;32.89;19.45;93574.53;5017133;28;20041;-82
2022/11/23 10:27:17;;;;;;;5.55;4.45;;;;;;;32.76;19.80;93566.59;5026796;28;20076;-84
2022/11/23 10:29:42;;;;;;;6.47;4.05;;;;;;;32.22;19.74;93576.00;5007075;28;20064;-85
2022/11/23 10:32:31;;;;;;;6.68;4.63;;;;;;;31.37;20.54;93577.59;5026359;28;20507;-86
2022/11/23 10:35:22;;;;;;;6.15;4.47;;;;;;;29.28;23.24;93569.88;4987307;28;20469;-85
2022/11/23 10:37:47;;;;;;;8.30;4.88;;;;;;;28.83;24.22;93574.94;5024542;28;20038;-82
2022/11/23 10:40:22;;;;;;;8.30;5.53;;;;;;;28.35;24.39;93571.94;5023339;28;20484;-83
2022/11/23 10:42:57;;;;;;;6.95;5.05;;;;;;;27.77;25.03;93558.22;4976097;28;20498;-88
2022/11/23 10:45:24;;;;;;;11.63;6.47;;;;;;;27.77;25.24;93561.03;5008278;28;20029;-84
2022/11/23 10:47:51;;;;;;;6.65;4.63;;;;;;;27.38;25.88;93565.59;5000788;28;20042;-85
2022/11/23 10:50:22;;;;;;;11.80;7.80;;;;;;;27.46;25.45;93566.25;5004930;28;20558;-78
2022/11/23 10:53:11;;;;;;;10.77;6.38;;;;;;;27.69;25.30;93560.38;5016798;28;20035;-80
2022/11/23 10:55:56;;;;;;;10.00;6.75;;;;;;;27.78;25.05;93542.75;5025231;28;20034;-85
2022/11/23 10:58:30;;;;;;;7.72;5.45;;;;;;;28.58;24.00;93566.69;5022752;28;20116;-83
2022/11/23 11:01:03;;;;;;;6.57;3.92;;;;;;;29.03;23.02;93552.41;4999462;28;20507;-83
2022/11/23 11:03:31;;;;;;;12.43;5.70;;;;;;;29.18;22.89;93560.59;4991110;28;20029;-84
2022/11/23 11:05:57;;;;;;;6.00;3.22;;;;;;;29.71;21.10;93558.88;5005777;28;20508;-83
2022/11/23 11:08:32;;;;;;;4.22;2.35;;;;;;;30.07;19.28;93543.03;5009566;28;20040;-83
2022/11/23 11:11:01;;;;;;;4.20;1.42;;;;;;;30.29;18.34;93541.06;5018752;28;20139;-83
2022/11/23 11:13:31;;;;;;;5.63;3.10;;;;;;;30.71;18.31;93543.28;4989211;28;20499;-77
2022/11/23 11:16:02;;;;;;;4.13;2.80;;;;;;;31.26;17.87;93538.53;4973188;28;20064;-78
2022/11/23 11:18:32;;;;;;;2.08;0.60;;;;;;;31.71;16.73;93550.75;5034008;28;20431;-78
2022/11/23 11:21:18;;;;;;;1.90;0.50;;;;;;;31.75;16.06;93546.66;4976064;28;20484;-79
2022/11/23 11:23:50;;;;;;;1.65;0.60;;;;;;;31.57;16.37;93543.38;4988009;28;20109;-78
2022/11/23 11:26:19;;;;;;;2.17;0.80;;;;;;;31.43;16.75;93548.88;5008929;28;20056;-79
2022/11/23 11:28:47;;;;;;;2.15;0.60;;;;;;;31.01;17.26;93532.53;5024906;28;20295;-79